Time;durP1;ratioP1;P1;durP2;ratioP2;P2;SDS_P1;SDS_P2;PMS_P1;PMS_P2;Temp;Humidity;BMP_temperature;BMP_pressure;BME280_temperature;BME280_humidity;BME280_pressure;Samples;Min_cycle;Max_cycle;Signal;HPM_P1;HPM_P2
2023/06/22 00:01:18;;;;;;;4.10;3.80;;;;;;;;;;5118823;27;20904;-66
2023/06/22 00:03:45;;;;;;;4.70;4.30;;;;;;;;;;5111763;28;20411;-66
2023/06/22 00:06:12;;;;;;;4.50;4.20;;;;;;;;;;5114122;27;20769;-65
2023/06/22 00:08:41;;;;;;;4.35;3.95;;;;;;;;;;5129190;27;20418;-65
2023/06/22 00:11:08;;;;;;;4.78;4.38;;;;;;;;;;5114293;27;20415;-65
2023/06/22 00:13:36;;;;;;;5.03;4.25;;;;;;;;;;5110724;27;20423;-65
2023/06/22 00:16:03;;;;;;;4.80;4.38;;;;;;;;;;5127590;27;20447;-66
2023/06/22 00:18:30;;;;;;;5.28;4.78;;;;;;;;;;5117927;27;20414;-66
2023/06/22 00:20:58;;;;;;;4.60;4.20;;;;;;;;;;5113044;27;20413;-66
2023/06/22 00:23:25;;;;;;;4.60;4.20;;;;;;;;;;5111064;28;20812;-66
2023/06/22 00:25:54;;;;;;;4.70;4.30;;;;;;;;;;5110727;28;20783;-65
2023/06/22 00:28:21;;;;;;;5.30;4.80;;;;;;;;;;5116172;27;20418;-66
2023/06/22 00:30:48;;;;;;;5.03;4.57;;;;;;;;;;5117682;27;20415;-67
2023/06/22 00:33:15;;;;;;;4.70;4.30;;;;;;;;;;5118617;27;20997;-66
2023/06/22 00:35:43;;;;;;;4.20;3.90;;;;;;;;;;5116579;27;20780;-66
2023/06/22 00:38:10;;;;;;;4.70;4.30;;;;;;;;;;5113847;27;21011;-67
2023/06/22 00:40:37;;;;;;;4.38;4.07;;;;;;;;;;5111591;27;20419;-67
2023/06/22 00:43:06;;;;;;;5.05;4.65;;;;;;;;;;5117933;27;20419;-66
2023/06/22 00:45:33;;;;;;;4.80;4.50;;;;;;;;;;5115992;27;20427;-67
2023/06/22 00:48:01;;;;;;;4.80;4.40;;;;;;;;;;5120863;27;20416;-66
2023/06/22 00:50:33;;;;;;;4.93;4.43;;;;;;;;;;5123357;27;20783;-66
2023/06/22 00:53:01;;;;;;;5.65;4.80;;;;;;;;;;5123836;27;20445;-65
2023/06/22 00:55:28;;;;;;;4.38;4.07;;;;;;;;;;5110530;28;20415;-65
2023/06/22 00:57:56;;;;;;;4.20;3.90;;;;;;;;;;5110287;27;20786;-65
2023/06/22 01:00:25;;;;;;;4.50;4.20;;;;;;;;;;5109948;28;20450;-66
2023/06/22 01:02:53;;;;;;;4.60;4.20;;;;;;;;;;5110499;28;20506;-66
2023/06/22 01:05:20;;;;;;;4.80;4.40;;;;;;;;;;5109952;28;20412;-65
2023/06/22 01:07:54;;;;;;;4.57;4.17;;;;;;;;;;5110567;27;20410;-67
2023/06/22 01:10:25;;;;;;;4.35;4.03;;;;;;;;;;5118778;27;20767;-67
2023/06/22 01:12:54;;;;;;;4.50;4.10;;;;;;;;;;5110382;28;20435;-66
2023/06/22 01:15:23;;;;;;;4.65;4.20;;;;;;;;;;5115164;27;20790;-67
2023/06/22 01:17:53;;;;;;;4.50;4.10;;;;;;;;;;5111196;27;20435;-66
2023/06/22 01:20:22;;;;;;;4.80;4.30;;;;;;;;;;5109209;28;20416;-67
2023/06/22 01:22:56;;;;;;;4.70;4.20;;;;;;;;;;5115804;27;20409;-66
2023/06/22 01:25:28;;;;;;;5.00;4.53;;;;;;;;;;5116530;27;20416;-65
2023/06/22 01:28:01;;;;;;;4.60;4.30;;;;;;;;;;5110211;27;20495;-67
2023/06/22 01:30:29;;;;;;;4.90;4.40;;;;;;;;;;5109191;28;20415;-67
2023/06/22 01:32:58;;;;;;;4.70;4.30;;;;;;;;;;5110314;28;20431;-66
2023/06/22 01:35:25;;;;;;;5.30;4.80;;;;;;;;;;5112387;27;20794;-66
2023/06/22 01:37:52;;;;;;;4.90;4.50;;;;;;;;;;5120949;27;20431;-67
2023/06/22 01:40:20;;;;;;;4.50;4.20;;;;;;;;;;5115058;27;20420;-65
2023/06/22 01:42:48;;;;;;;4.80;4.15;;;;;;;;;;5111257;27;20790;-65
2023/06/22 01:45:15;;;;;;;4.90;4.50;;;;;;;;;;5109765;28;20416;-66
2023/06/22 01:47:43;;;;;;;4.85;4.45;;;;;;;;;;5095380;22;20441;-70
2023/06/22 01:50:11;;;;;;;4.50;4.10;;;;;;;;;;4965649;28;20442;-68
2023/06/22 01:52:38;;;;;;;5.28;4.78;;;;;;;;;;4967210;28;20784;-69
2023/06/22 01:55:07;;;;;;;5.20;4.38;;;;;;;;;;4963983;28;20422;-70
2023/06/22 01:57:34;;;;;;;4.90;4.50;;;;;;;;;;4947698;28;20515;-70
2023/06/22 02:00:02;;;;;;;5.07;4.68;;;;;;;;;;4949067;28;20514;-69
2023/06/22 02:02:33;;;;;;;5.07;4.60;;;;;;;;;;4947611;28;20919;-68
2023/06/22 02:05:04;;;;;;;4.70;4.30;;;;;;;;;;4961334;28;20433;-70
2023/06/22 02:07:33;;;;;;;4.78;4.38;;;;;;;;;;4960887;28;20898;-70
2023/06/22 02:10:01;;;;;;;4.30;4.00;;;;;;;;;;4954985;28;20430;-70
2023/06/22 02:12:29;;;;;;;4.70;4.30;;;;;;;;;;4966055;28;20433;-70
2023/06/22 02:14:56;;;;;;;4.40;4.00;;;;;;;;;;4957491;28;20433;-70
2023/06/22 02:17:25;;;;;;;4.80;4.30;;;;;;;;;;4960394;28;20894;-70
2023/06/22 02:19:52;;;;;;;4.30;3.90;;;;;;;;;;4947301;28;20436;-67
2023/06/22 02:22:20;;;;;;;4.10;3.80;;;;;;;;;;4948641;28;20426;-70
2023/06/22 02:24:47;;;;;;;4.28;3.97;;;;;;;;;;4947983;28;20418;-68
2023/06/22 02:27:14;;;;;;;4.68;4.20;;;;;;;;;;4948811;28;20467;-69
2023/06/22 02:29:41;;;;;;;4.30;3.80;;;;;;;;;;4964409;28;20810;-68
2023/06/22 02:32:09;;;;;;;4.72;4.22;;;;;;;;;;4951612;28;20982;-69
2023/06/22 02:34:36;;;;;;;4.32;3.97;;;;;;;;;;4948860;28;20433;-70
2023/06/22 02:37:03;;;;;;;4.47;4.15;;;;;;;;;;4952470;28;20432;-70
2023/06/22 02:39:32;;;;;;;4.37;3.97;;;;;;;;;;4957175;28;20429;-70
2023/06/22 02:41:59;;;;;;;4.50;4.10;;;;;;;;;;4948788;28;20824;-69
2023/06/22 02:44:26;;;;;;;4.60;4.20;;;;;;;;;;4950708;28;20901;-68
2023/06/22 02:46:54;;;;;;;4.60;4.20;;;;;;;;;;4948138;28;20430;-70
2023/06/22 02:49:21;;;;;;;4.40;4.10;;;;;;;;;;4959664;28;20434;-69
2023/06/22 02:51:49;;;;;;;4.88;4.10;;;;;;;;;;4964789;28;20869;-70
2023/06/22 02:54:16;;;;;;;4.43;4.03;;;;;;;;;;4966074;28;20950;-69
2023/06/22 02:56:44;;;;;;;4.15;3.83;;;;;;;;;;4961242;28;20486;-70
2023/06/22 02:59:11;;;;;;;4.57;4.22;;;;;;;;;;4966427;28;20435;-69
2023/06/22 03:01:40;;;;;;;4.53;4.13;;;;;;;;;;4950877;28;20437;-70
2023/06/22 03:04:08;;;;;;;4.57;4.18;;;;;;;;;;4955791;28;20468;-69
2023/06/22 03:06:35;;;;;;;5.20;4.22;;;;;;;;;;5012712;28;20490;-70
2023/06/22 03:09:03;;;;;;;4.60;4.20;;;;;;;;;;4954156;28;20434;-69
2023/06/22 03:11:30;;;;;;;4.75;4.35;;;;;;;;;;4947690;28;20905;-68
2023/06/22 03:13:59;;;;;;;4.40;4.00;;;;;;;;;;4962511;28;20951;-70
2023/06/22 03:16:26;;;;;;;5.20;4.20;;;;;;;;;;4956821;28;20424;-69
2023/06/22 03:18:54;;;;;;;4.80;4.40;;;;;;;;;;4957013;28;20433;-70
2023/06/22 03:21:21;;;;;;;5.20;4.80;;;;;;;;;;4963249;28;20492;-70
2023/06/22 03:23:48;;;;;;;4.80;4.30;;;;;;;;;;4955224;28;20450;-69
2023/06/22 03:26:18;;;;;;;4.90;4.50;;;;;;;;;;4959895;28;20425;-70
2023/06/22 03:28:45;;;;;;;5.00;4.50;;;;;;;;;;4958047;28;20431;-69
2023/06/22 03:31:13;;;;;;;4.95;4.55;;;;;;;;;;4970063;28;20428;-69
2023/06/22 03:33:40;;;;;;;5.17;4.67;;;;;;;;;;4969898;28;20432;-69
2023/06/22 03:36:07;;;;;;;5.55;5.05;;;;;;;;;;4961846;28;20426;-70
2023/06/22 03:38:34;;;;;;;5.00;4.60;;;;;;;;;;4950643;28;20426;-70
2023/06/22 03:41:01;;;;;;;5.10;4.60;;;;;;;;;;4958381;28;20428;-70
2023/06/22 03:43:28;;;;;;;4.55;4.15;;;;;;;;;;4958191;28;20420;-70
2023/06/22 03:45:55;;;;;;;5.40;4.90;;;;;;;;;;4966314;28;20431;-72
2023/06/22 03:48:24;;;;;;;5.70;5.20;;;;;;;;;;4956431;28;20421;-72
2023/06/22 03:50:51;;;;;;;5.68;5.18;;;;;;;;;;4960214;28;20426;-73
2023/06/22 03:53:18;;;;;;;6.07;5.13;;;;;;;;;;4950140;28;20507;-72
2023/06/22 03:55:50;;;;;;;5.10;4.60;;;;;;;;;;4953181;28;20429;-74
2023/06/22 03:58:18;;;;;;;5.30;4.90;;;;;;;;;;4952563;28;20468;-69
2023/06/22 04:00:45;;;;;;;5.20;4.80;;;;;;;;;;4960004;28;20426;-74
2023/06/22 04:03:12;;;;;;;5.80;5.40;;;;;;;;;;4972187;28;20413;-72
2023/06/22 04:05:41;;;;;;;6.00;5.50;;;;;;;;;;4980299;28;20795;-73
2023/06/22 04:08:08;;;;;;;6.60;6.00;;;;;;;;;;4990261;28;20467;-72
2023/06/22 04:10:35;;;;;;;6.80;6.20;;;;;;;;;;5036098;28;20430;-71
2023/06/22 04:13:02;;;;;;;6.90;6.30;;;;;;;;;;4958636;28;20430;-71
2023/06/22 04:15:29;;;;;;;6.40;5.90;;;;;;;;;;4968333;28;20431;-74
2023/06/22 04:17:57;;;;;;;6.90;6.20;;;;;;;;;;4977723;28;20430;-72
2023/06/22 04:20:25;;;;;;;6.50;6.00;;;;;;;;;;4958079;28;20934;-71
2023/06/22 04:22:53;;;;;;;6.18;5.68;;;;;;;;;;4961313;28;20860;-73
2023/06/22 04:25:20;;;;;;;6.73;6.23;;;;;;;;;;5002859;28;20497;-70
2023/06/22 04:27:48;;;;;;;6.78;6.20;;;;;;;;;;4965756;28;20455;-73
2023/06/22 04:30:16;;;;;;;6.80;6.20;;;;;;;;;;4997740;28;20822;-72
2023/06/22 04:32:43;;;;;;;6.10;5.60;;;;;;;;;;5001760;28;20922;-74
2023/06/22 04:35:10;;;;;;;6.85;6.13;;;;;;;;;;4968276;28;20521;-71
2023/06/22 04:37:39;;;;;;;6.90;6.40;;;;;;;;;;4950362;28;20744;-72
2023/06/22 04:40:09;;;;;;;6.60;6.10;;;;;;;;;;4966297;28;20432;-71
2023/06/22 04:42:36;;;;;;;7.18;6.68;;;;;;;;;;4951585;28;20422;-71
2023/06/22 04:45:04;;;;;;;7.13;6.63;;;;;;;;;;4954041;28;20422;-71
2023/06/22 04:47:31;;;;;;;7.70;7.00;;;;;;;;;;4959600;28;20503;-72
2023/06/22 04:49:58;;;;;;;7.77;7.17;;;;;;;;;;4965088;28;20952;-71
2023/06/22 04:52:25;;;;;;;7.47;6.87;;;;;;;;;;4983901;28;20956;-71
2023/06/22 04:54:55;;;;;;;6.75;6.20;;;;;;;;;;4981634;28;20438;-73
2023/06/22 04:57:32;;;;;;;8.07;7.37;;;;;;;;;;5005833;28;20434;-71
2023/06/22 05:00:06;;;;;;;8.48;7.78;;;;;;;;;;5022743;28;20903;-73
2023/06/22 05:02:33;;;;;;;7.90;7.20;;;;;;;;;;4955639;28;20765;-70
2023/06/22 05:05:06;;;;;;;8.70;7.90;;;;;;;;;;4963368;28;21044;-70
2023/06/22 05:07:33;;;;;;;8.40;7.70;;;;;;;;;;4965510;28;20448;-70
2023/06/22 05:10:01;;;;;;;9.10;8.30;;;;;;;;;;4963414;28;20443;-70
2023/06/22 05:12:30;;;;;;;8.30;7.60;;;;;;;;;;4963922;28;20436;-70
2023/06/22 05:14:57;;;;;;;8.73;8.10;;;;;;;;;;4999833;28;20809;-72
2023/06/22 05:17:24;;;;;;;8.45;7.65;;;;;;;;;;4986311;28;20439;-70
2023/06/22 05:19:51;;;;;;;9.00;8.25;;;;;;;;;;4997986;28;20444;-68
2023/06/22 05:22:19;;;;;;;9.10;8.40;;;;;;;;;;4956242;28;20432;-70
2023/06/22 05:24:46;;;;;;;8.90;8.30;;;;;;;;;;5009862;28;20435;-68
2023/06/22 05:27:13;;;;;;;9.63;8.82;;;;;;;;;;4983796;28;20444;-68
2023/06/22 05:29:42;;;;;;;8.27;7.47;;;;;;;;;;5024014;28;21039;-69
2023/06/22 05:32:09;;;;;;;8.55;7.85;;;;;;;;;;4970664;28;20426;-70
2023/06/22 05:34:36;;;;;;;8.60;7.90;;;;;;;;;;4952409;28;20438;-69
2023/06/22 05:37:04;;;;;;;8.65;8.05;;;;;;;;;;4958401;28;20430;-69
2023/06/22 05:39:31;;;;;;;8.80;8.10;;;;;;;;;;4978754;28;20447;-68
2023/06/22 05:41:58;;;;;;;8.30;7.60;;;;;;;;;;4974207;28;20438;-68
2023/06/22 05:44:25;;;;;;;8.85;8.10;;;;;;;;;;4967002;28;20814;-68
2023/06/22 05:46:53;;;;;;;9.40;8.70;;;;;;;;;;4962295;28;20442;-71
2023/06/22 05:49:21;;;;;;;8.15;7.55;;;;;;;;;;4957939;28;20441;-68
2023/06/22 05:51:49;;;;;;;9.00;8.30;;;;;;;;;;4967899;28;20517;-69
2023/06/22 05:54:17;;;;;;;9.27;8.57;;;;;;;;;;4983365;28;20439;-69
2023/06/22 05:56:44;;;;;;;8.35;7.75;;;;;;;;;;4969386;28;20870;-68
2023/06/22 05:59:12;;;;;;;9.00;8.30;;;;;;;;;;4965944;28;20894;-69
2023/06/22 06:01:40;;;;;;;8.70;8.00;;;;;;;;;;4961959;28;20521;-69
2023/06/22 06:04:08;;;;;;;9.00;8.20;;;;;;;;;;4994959;28;20456;-68
2023/06/22 06:06:36;;;;;;;8.77;8.07;;;;;;;;;;4991157;28;20455;-68
2023/06/22 06:09:04;;;;;;;8.65;7.85;;;;;;;;;;4987755;28;20436;-69
2023/06/22 06:11:31;;;;;;;8.45;7.85;;;;;;;;;;4965716;28;20837;-69
2023/06/22 06:13:58;;;;;;;8.65;7.95;;;;;;;;;;5006251;28;20954;-69
2023/06/22 06:16:25;;;;;;;9.00;8.30;;;;;;;;;;5016578;28;20459;-70
2023/06/22 06:18:54;;;;;;;9.30;8.60;;;;;;;;;;4995274;28;20921;-69
2023/06/22 06:21:22;;;;;;;8.40;7.70;;;;;;;;;;4979137;28;20723;-69
2023/06/22 06:23:50;;;;;;;8.90;8.20;;;;;;;;;;4984200;28;20440;-68
2023/06/22 06:26:17;;;;;;;9.00;8.20;;;;;;;;;;4976765;28;20521;-67
2023/06/22 06:28:44;;;;;;;9.13;8.43;;;;;;;;;;4965695;28;20458;-68
2023/06/22 06:31:16;;;;;;;8.93;8.20;;;;;;;;;;4963698;28;20443;-68
2023/06/22 06:33:43;;;;;;;9.20;8.40;;;;;;;;;;4958203;28;20440;-69
2023/06/22 06:36:11;;;;;;;8.05;7.43;;;;;;;;;;4956267;28;20421;-68
2023/06/22 06:38:39;;;;;;;8.40;7.60;;;;;;;;;;4959203;28;20440;-69
2023/06/22 06:41:06;;;;;;;8.27;7.53;;;;;;;;;;4965699;28;20440;-67
2023/06/22 06:43:33;;;;;;;7.65;7.07;;;;;;;;;;4960855;28;20489;-68
2023/06/22 06:46:00;;;;;;;8.00;7.40;;;;;;;;;;5004128;28;20781;-68
2023/06/22 06:48:27;;;;;;;8.02;7.43;;;;;;;;;;5006634;28;20812;-68
2023/06/22 06:50:54;;;;;;;8.23;7.60;;;;;;;;;;4958642;28;20544;-69
2023/06/22 06:53:21;;;;;;;7.85;7.10;;;;;;;;;;4949293;28;20917;-70
2023/06/22 06:55:50;;;;;;;8.13;7.43;;;;;;;;;;4965040;28;20444;-69
2023/06/22 06:58:17;;;;;;;8.00;7.40;;;;;;;;;;4964344;28;20445;-67
2023/06/22 07:00:44;;;;;;;8.20;7.60;;;;;;;;;;4959979;28;20445;-69
2023/06/22 07:03:11;;;;;;;7.85;7.25;;;;;;;;;;4960895;28;20523;-68
2023/06/22 07:05:38;;;;;;;7.40;6.80;;;;;;;;;;4965435;28;20949;-67
2023/06/22 07:08:05;;;;;;;7.10;6.50;;;;;;;;;;4964314;28;20443;-68
2023/06/22 07:10:32;;;;;;;7.53;6.93;;;;;;;;;;4961242;28;20440;-67
2023/06/22 07:13:01;;;;;;;7.50;6.90;;;;;;;;;;4961217;28;20424;-70
2023/06/22 07:15:28;;;;;;;6.80;6.20;;;;;;;;;;4987175;28;20528;-68
2023/06/22 07:17:55;;;;;;;7.60;7.00;;;;;;;;;;4995260;28;20436;-70
2023/06/22 07:20:22;;;;;;;6.80;6.30;;;;;;;;;;4992039;28;20421;-68
2023/06/22 07:22:49;;;;;;;7.20;6.50;;;;;;;;;;4981872;28;20619;-68
2023/06/22 07:25:17;;;;;;;6.72;6.13;;;;;;;;;;4962549;28;20436;-69
2023/06/22 07:27:48;;;;;;;6.72;6.22;;;;;;;;;;4992158;28;20458;-68
2023/06/22 07:30:16;;;;;;;6.80;6.30;;;;;;;;;;4959521;28;20908;-69
2023/06/22 07:32:44;;;;;;;6.70;6.20;;;;;;;;;;4964039;28;20667;-71
2023/06/22 07:35:11;;;;;;;6.70;6.20;;;;;;;;;;4960524;28;20823;-74
2023/06/22 07:37:38;;;;;;;6.50;6.00;;;;;;;;;;4973773;28;20432;-74
2023/06/22 07:40:06;;;;;;;6.68;6.07;;;;;;;;;;4960157;28;20447;-74
2023/06/22 07:42:33;;;;;;;6.60;6.10;;;;;;;;;;4983668;28;20431;-73
2023/06/22 07:45:02;;;;;;;6.93;6.32;;;;;;;;;;5007248;28;20412;-73
2023/06/22 07:47:33;;;;;;;8.10;6.10;;;;;;;;;;4978049;28;20436;-74
2023/06/22 07:50:01;;;;;;;6.50;6.00;;;;;;;;;;4949081;28;20528;-73
2023/06/22 07:52:28;;;;;;;6.63;6.03;;;;;;;;;;4957274;28;20588;-74
2023/06/22 07:54:55;;;;;;;6.43;5.83;;;;;;;;;;5002335;28;20435;-75
2023/06/22 07:57:22;;;;;;;6.47;5.88;;;;;;;;;;4974199;28;20442;-75
2023/06/22 07:59:49;;;;;;;8.20;7.50;;;;;;;;;;4987885;28;20464;-73
2023/06/22 08:02:16;;;;;;;7.38;6.75;;;;;;;;;;4958921;28;20445;-70
2023/06/22 08:04:45;;;;;;;6.90;6.32;;;;;;;;;;5015135;28;20779;-73
2023/06/22 08:07:12;;;;;;;7.00;6.40;;;;;;;;;;4966758;28;20798;-73
2023/06/22 08:09:39;;;;;;;6.70;6.15;;;;;;;;;;4971595;28;20438;-73
2023/06/22 08:12:07;;;;;;;7.13;6.53;;;;;;;;;;4993078;28;20433;-73
2023/06/22 08:14:36;;;;;;;7.15;6.65;;;;;;;;;;5003402;28;20431;-73
2023/06/22 08:17:03;;;;;;;6.97;6.45;;;;;;;;;;4969070;28;20453;-72
2023/06/22 08:19:30;;;;;;;6.80;6.20;;;;;;;;;;4983590;28;20427;-73
2023/06/22 08:21:58;;;;;;;7.10;6.50;;;;;;;;;;4986951;28;20440;-72
2023/06/22 08:24:25;;;;;;;6.80;6.20;;;;;;;;;;4975775;28;20853;-74
2023/06/22 08:26:53;;;;;;;6.90;6.40;;;;;;;;;;4977317;28;20440;-73
2023/06/22 08:29:20;;;;;;;7.00;6.40;;;;;;;;;;4990673;28;20818;-72
2023/06/22 08:31:47;;;;;;;6.43;5.93;;;;;;;;;;4994133;28;20607;-72
2023/06/22 08:34:14;;;;;;;7.30;6.80;;;;;;;;;;5013919;28;20884;-68
2023/06/22 08:36:44;;;;;;;6.82;6.32;;;;;;;;;;4965200;28;20992;-69
2023/06/22 08:39:13;;;;;;;6.65;6.15;;;;;;;;;;4962586;28;20793;-68
2023/06/22 08:41:40;;;;;;;5.87;5.47;;;;;;;;;;4963769;28;20447;-70
2023/06/22 08:44:07;;;;;;;6.10;5.60;;;;;;;;;;4959491;28;20818;-70
2023/06/22 08:46:34;;;;;;;5.90;5.40;;;;;;;;;;4953783;28;20906;-68
2023/06/22 08:49:01;;;;;;;73.30;67.80;;;;;;;;;;4973041;28;20890;-73
2023/06/22 08:51:29;;;;;;;19.58;18.15;;;;;;;;;;4955377;28;22026;-73
2023/06/22 08:53:56;;;;;;;6.18;5.78;;;;;;;;;;4980736;28;20638;-71
2023/06/22 08:56:24;;;;;;;6.00;5.50;;;;;;;;;;5001325;28;20433;-71
2023/06/22 08:58:51;;;;;;;6.07;5.57;;;;;;;;;;4960073;28;20425;-71
2023/06/22 09:01:18;;;;;;;5.90;5.40;;;;;;;;;;4973450;28;20447;-69
2023/06/22 09:03:53;;;;;;;5.97;5.47;;;;;;;;;;4964150;28;20436;-70
2023/06/22 09:06:21;;;;;;;5.88;5.47;;;;;;;;;;5011874;28;20462;-71
2023/06/22 09:08:48;;;;;;;5.93;5.53;;;;;;;;;;4962176;28;20476;-71
2023/06/22 09:11:16;;;;;;;6.10;5.70;;;;;;;;;;5029260;28;20430;-71
2023/06/22 09:13:44;;;;;;;6.00;5.60;;;;;;;;;;4960162;28;21018;-70
2023/06/22 09:16:11;;;;;;;6.07;5.63;;;;;;;;;;4972798;28;20806;-70
2023/06/22 09:18:39;;;;;;;5.97;5.47;;;;;;;;;;4973997;28;20987;-71
2023/06/22 09:21:06;;;;;;;6.10;5.60;;;;;;;;;;4962360;28;20434;-72
2023/06/22 09:23:33;;;;;;;6.00;5.40;;;;;;;;;;4965581;28;20747;-71
2023/06/22 09:26:00;;;;;;;5.70;5.30;;;;;;;;;;4962299;28;20519;-71
2023/06/22 09:28:27;;;;;;;5.47;5.07;;;;;;;;;;4960946;28;20523;-71
2023/06/22 09:30:59;;;;;;;6.30;5.70;;;;;;;;;;4959490;28;20444;-68
2023/06/22 09:33:26;;;;;;;5.72;5.32;;;;;;;;;;4962651;28;20774;-70
2023/06/22 09:35:53;;;;;;;5.70;5.20;;;;;;;;;;4963611;28;20953;-72
2023/06/22 09:38:20;;;;;;;5.60;5.10;;;;;;;;;;4958460;28;20448;-74
2023/06/22 09:40:47;;;;;;;5.40;5.00;;;;;;;;;;4963955;28;20934;-72
2023/06/22 09:43:14;;;;;;;6.30;5.40;;;;;;;;;;4966472;28;20780;-72
2023/06/22 09:45:42;;;;;;;5.88;5.47;;;;;;;;;;4982796;28;21010;-72
2023/06/22 09:48:10;;;;;;;5.47;5.07;;;;;;;;;;4954731;28;20586;-72
2023/06/22 09:50:37;;;;;;;5.70;5.20;;;;;;;;;;4942508;28;20426;-73
2023/06/22 09:53:04;;;;;;;5.30;5.00;;;;;;;;;;4958701;28;20459;-72
2023/06/22 09:55:31;;;;;;;6.00;5.60;;;;;;;;;;4989399;28;20432;-72
2023/06/22 09:57:59;;;;;;;5.70;5.30;;;;;;;;;;4946967;28;20435;-72
2023/06/22 10:00:26;;;;;;;6.13;5.63;;;;;;;;;;4959810;28;20957;-72
2023/06/22 10:02:53;;;;;;;5.82;5.32;;;;;;;;;;4991305;28;20448;-72
2023/06/22 10:05:22;;;;;;;5.40;5.00;;;;;;;;;;4996364;28;20451;-71
2023/06/22 10:07:49;;;;;;;7.72;7.18;;;;;;;;;;4981829;28;20457;-71
2023/06/22 10:10:16;;;;;;;6.32;5.88;;;;;;;;;;5013487;28;20458;-71
2023/06/22 10:12:44;;;;;;;5.90;5.50;;;;;;;;;;4948169;28;20421;-73
2023/06/22 10:15:11;;;;;;;5.97;5.55;;;;;;;;;;4970660;28;20443;-73
2023/06/22 10:17:38;;;;;;;6.28;5.68;;;;;;;;;;4983574;28;20430;-73
2023/06/22 10:20:11;;;;;;;6.40;5.90;;;;;;;;;;4948448;28;20430;-73
2023/06/22 10:22:39;;;;;;;6.47;5.97;;;;;;;;;;4953086;28;20502;-71
2023/06/22 10:25:07;;;;;;;6.50;5.90;;;;;;;;;;5010270;28;20474;-73
2023/06/22 10:27:34;;;;;;;6.65;6.10;;;;;;;;;;5015927;28;20431;-72
2023/06/22 10:30:01;;;;;;;7.85;7.15;;;;;;;;;;4957718;28;20451;-72
2023/06/22 10:32:29;;;;;;;6.85;6.28;;;;;;;;;;4961596;28;20439;-73
2023/06/22 10:34:56;;;;;;;8.00;7.40;;;;;;;;;;4965811;28;20440;-73
2023/06/22 10:37:23;;;;;;;8.37;7.70;;;;;;;;;;5010119;28;20416;-71
2023/06/22 10:39:51;;;;;;;8.93;8.23;;;;;;;;;;4977986;28;20433;-73
2023/06/22 10:42:18;;;;;;;8.38;7.68;;;;;;;;;;4962356;28;20424;-73
2023/06/22 10:44:45;;;;;;;8.90;8.20;;;;;;;;;;5000882;28;20461;-72
2023/06/22 10:47:12;;;;;;;9.25;8.55;;;;;;;;;;5009918;28;20450;-71
2023/06/22 10:49:40;;;;;;;11.45;10.55;;;;;;;;;;4999063;28;20438;-69
2023/06/22 10:52:08;;;;;;;12.27;11.07;;;;;;;;;;4998466;28;20440;-71
2023/06/22 10:54:35;;;;;;;12.85;11.75;;;;;;;;;;4971004;28;20798;-71
2023/06/22 10:57:04;;;;;;;13.48;12.30;;;;;;;;;;4975566;28;20798;-71
2023/06/22 10:59:31;;;;;;;14.80;13.50;;;;;;;;;;4974985;28;20433;-69
2023/06/22 11:01:58;;;;;;;14.10;12.90;;;;;;;;;;4972166;28;20448;-72
2023/06/22 11:04:25;;;;;;;14.87;13.77;;;;;;;;;;4959374;28;20520;-73
2023/06/22 11:06:52;;;;;;;14.90;13.75;;;;;;;;;;4977309;28;20913;-70
2023/06/22 11:09:21;;;;;;;16.15;14.75;;;;;;;;;;4959348;28;20440;-71
2023/06/22 11:11:48;;;;;;;17.30;15.90;;;;;;;;;;4962316;28;20933;-71
2023/06/22 11:14:16;;;;;;;19.75;18.25;;;;;;;;;;4964542;28;20443;-72
2023/06/22 11:16:43;;;;;;;21.48;19.73;;;;;;;;;;4962997;28;21059;-69
2023/06/22 11:19:10;;;;;;;24.30;22.20;;;;;;;;;;4982861;28;20447;-71
2023/06/22 11:21:37;;;;;;;24.35;22.35;;;;;;;;;;4985034;28;20430;-71
2023/06/22 11:24:04;;;;;;;25.23;23.00;;;;;;;;;;4985368;28;20419;-70
2023/06/22 11:26:32;;;;;;;24.33;22.33;;;;;;;;;;4970665;28;20891;-72
2023/06/22 11:28:59;;;;;;;23.30;21.40;;;;;;;;;;4956640;28;20448;-72
2023/06/22 11:31:28;;;;;;;23.02;20.92;;;;;;;;;;4974305;28;20440;-70
2023/06/22 11:33:55;;;;;;;22.83;20.93;;;;;;;;;;4982435;28;20482;-70
2023/06/22 11:36:22;;;;;;;21.00;19.30;;;;;;;;;;4966532;28;20428;-72
2023/06/22 11:38:49;;;;;;;20.92;19.23;;;;;;;;;;4964691;28;20949;-69
2023/06/22 11:41:16;;;;;;;18.90;17.50;;;;;;;;;;4970073;28;20458;-70
2023/06/22 11:43:43;;;;;;;19.33;17.88;;;;;;;;;;4966716;28;20432;-71
2023/06/22 11:46:11;;;;;;;17.30;15.98;;;;;;;;;;4965047;28;20436;-71
2023/06/22 11:48:39;;;;;;;18.13;16.90;;;;;;;;;;4960857;28;20933;-70
2023/06/22 11:51:07;;;;;;;17.52;16.20;;;;;;;;;;4970159;28;20899;-69
2023/06/22 11:53:35;;;;;;;19.23;17.52;;;;;;;;;;4990350;28;20442;-70
2023/06/22 11:56:02;;;;;;;18.15;16.65;;;;;;;;;;4969449;28;20443;-70
2023/06/22 11:58:29;;;;;;;16.73;15.52;;;;;;;;;;5002136;28;20443;-71
2023/06/22 12:00:56;;;;;;;16.60;15.35;;;;;;;;;;4956555;28;20838;-71
2023/06/22 12:03:23;;;;;;;14.20;13.20;;;;;;;;;;5027191;28;20717;-73
2023/06/22 12:05:52;;;;;;;15.20;14.10;;;;;;;;;;5022230;28;20423;-73
2023/06/22 12:08:19;;;;;;;13.70;12.70;;;;;;;;;;4980815;28;20465;-72
2023/06/22 12:10:46;;;;;;;12.40;11.50;;;;;;;;;;4976117;28;20449;-71
2023/06/22 12:13:13;;;;;;;12.55;11.75;;;;;;;;;;4981667;28;20447;-72
2023/06/22 12:15:40;;;;;;;13.48;12.48;;;;;;;;;;4975523;28;20438;-72
2023/06/22 12:18:08;;;;;;;13.93;12.93;;;;;;;;;;4958676;28;20452;-72
2023/06/22 12:20:35;;;;;;;12.73;11.82;;;;;;;;;;4965671;28;20483;-71
2023/06/22 12:23:04;;;;;;;14.55;13.40;;;;;;;;;;4966467;28;20444;-73
2023/06/22 12:25:31;;;;;;;14.63;13.63;;;;;;;;;;4967072;28;20943;-72
2023/06/22 12:27:58;;;;;;;13.90;12.80;;;;;;;;;;4963133;28;20439;-73
2023/06/22 12:30:25;;;;;;;15.60;14.40;;;;;;;;;;4966641;28;20589;-72
2023/06/22 12:32:52;;;;;;;13.00;12.00;;;;;;;;;;4964882;28;20420;-71
2023/06/22 12:35:19;;;;;;;12.63;11.77;;;;;;;;;;4957130;28;20457;-73
2023/06/22 12:37:46;;;;;;;10.90;10.10;;;;;;;;;;4968316;28;20432;-72
2023/06/22 12:40:15;;;;;;;10.30;9.60;;;;;;;;;;4981741;28;20450;-71
2023/06/22 12:42:42;;;;;;;9.00;8.30;;;;;;;;;;4966469;28;20945;-70
2023/06/22 12:45:10;;;;;;;10.05;9.35;;;;;;;;;;4973331;28;20436;-70
2023/06/22 12:47:37;;;;;;;9.90;9.20;;;;;;;;;;4981080;28;20445;-71
2023/06/22 12:50:04;;;;;;;8.90;8.30;;;;;;;;;;5016341;28;20420;-71
2023/06/22 12:52:32;;;;;;;8.95;8.25;;;;;;;;;;5009224;28;20439;-71
2023/06/22 12:54:59;;;;;;;8.50;7.90;;;;;;;;;;5006031;28;20464;-72
2023/06/22 12:57:27;;;;;;;9.00;8.30;;;;;;;;;;4978759;28;20523;-70
2023/06/22 12:59:54;;;;;;;8.05;7.45;;;;;;;;;;5022606;28;20435;-71
2023/06/22 13:02:21;;;;;;;7.70;7.10;;;;;;;;;;4992771;28;20521;-72
2023/06/22 13:04:48;;;;;;;7.60;6.90;;;;;;;;;;4994847;28;20440;-70
2023/06/22 13:07:15;;;;;;;7.38;6.88;;;;;;;;;;4975555;28;20436;-70
2023/06/22 13:09:42;;;;;;;7.35;6.85;;;;;;;;;;4974679;28;20462;-71
2023/06/22 13:12:10;;;;;;;6.60;6.10;;;;;;;;;;5013960;28;20913;-72
2023/06/22 13:14:38;;;;;;;6.90;6.40;;;;;;;;;;4968920;28;20428;-70
2023/06/22 13:17:06;;;;;;;6.67;6.27;;;;;;;;;;4961616;28;20745;-73
2023/06/22 13:19:33;;;;;;;7.50;7.00;;;;;;;;;;4967327;28;20569;-72
2023/06/22 13:22:02;;;;;;;7.30;6.80;;;;;;;;;;4964960;28;21570;-71
2023/06/22 13:24:29;;;;;;;6.22;5.82;;;;;;;;;;4977665;28;20466;-72
2023/06/22 13:26:56;;;;;;;6.68;6.28;;;;;;;;;;4981946;28;20440;-71
2023/06/22 13:29:23;;;;;;;6.47;5.97;;;;;;;;;;4963681;28;20447;-70
2023/06/22 13:31:51;;;;;;;5.97;5.57;;;;;;;;;;4962020;28;20443;-71
2023/06/22 13:34:18;;;;;;;5.60;5.30;;;;;;;;;;4967439;28;20440;-71
2023/06/22 13:36:46;;;;;;;5.90;5.50;;;;;;;;;;4970341;28;20922;-72
2023/06/22 13:39:13;;;;;;;5.20;4.87;;;;;;;;;;5010937;28;20432;-70
2023/06/22 13:41:40;;;;;;;5.20;4.90;;;;;;;;;;4988227;28;20457;-73
2023/06/22 13:44:07;;;;;;;4.80;4.50;;;;;;;;;;5029683;28;20437;-71
2023/06/22 13:46:34;;;;;;;4.90;4.60;;;;;;;;;;4971174;28;20439;-72
2023/06/22 13:49:02;;;;;;;4.72;4.43;;;;;;;;;;5002831;28;20794;-73
2023/06/22 13:51:29;;;;;;;4.28;3.97;;;;;;;;;;4949469;28;20449;-72
2023/06/22 13:53:56;;;;;;;4.88;4.60;;;;;;;;;;5042755;23;20520;-71
2023/06/22 13:56:23;;;;;;;4.07;3.88;;;;;;;;;;5080879;28;20425;-71
2023/06/22 13:58:50;;;;;;;4.40;4.20;;;;;;;;;;5076709;28;20532;-74
2023/06/22 14:01:17;;;;;;;4.40;4.10;;;;;;;;;;5069468;28;20433;-76
2023/06/22 14:03:46;;;;;;;4.50;4.20;;;;;;;;;;5072325;28;20430;-69
2023/06/22 14:06:15;;;;;;;4.57;4.28;;;;;;;;;;5067958;28;20524;-71
2023/06/22 14:08:42;;;;;;;4.38;4.07;;;;;;;;;;5068564;28;20516;-72
2023/06/22 14:11:09;;;;;;;4.00;3.70;;;;;;;;;;5077111;28;20797;-68
2023/06/22 14:13:36;;;;;;;4.03;3.73;;;;;;;;;;5075826;28;20460;-71
2023/06/22 14:16:04;;;;;;;3.85;3.55;;;;;;;;;;5074009;28;20824;-70
2023/06/22 14:18:31;;;;;;;4.00;3.70;;;;;;;;;;5073394;28;20492;-71
2023/06/22 14:20:58;;;;;;;3.88;3.67;;;;;;;;;;5070701;28;20724;-70
2023/06/22 14:23:26;;;;;;;4.00;3.70;;;;;;;;;;5071765;28;20956;-70
2023/06/22 14:25:53;;;;;;;3.90;3.70;;;;;;;;;;5067354;28;20817;-70
2023/06/22 14:28:20;;;;;;;4.00;3.70;;;;;;;;;;5070763;28;20869;-71
2023/06/22 14:30:48;;;;;;;4.25;3.95;;;;;;;;;;5083956;28;20465;-71
2023/06/22 14:33:15;;;;;;;3.80;3.60;;;;;;;;;;5072812;28;20426;-71
2023/06/22 14:35:42;;;;;;;4.70;4.40;;;;;;;;;;5063961;28;20449;-70
2023/06/22 14:38:09;;;;;;;4.45;4.15;;;;;;;;;;5076375;28;20435;-70
2023/06/22 14:40:37;;;;;;;4.43;4.13;;;;;;;;;;5076289;28;20415;-71
2023/06/22 14:43:04;;;;;;;5.00;4.60;;;;;;;;;;5063554;28;20412;-72